createdAt,value
2024-03-05T00:01:24.452Z,999.90
2024-03-05T00:03:51.278Z,999.90
2024-03-05T00:06:18.540Z,999.90
2024-03-05T00:08:45.301Z,999.90
2024-03-05T00:11:12.512Z,999.90
2024-03-05T00:13:39.389Z,999.90
2024-03-05T00:16:09.070Z,999.90
2024-03-05T00:18:43.339Z,999.90
2024-03-05T00:21:10.704Z,999.90
2024-03-05T00:23:37.911Z,999.90
2024-03-05T00:26:05.085Z,999.90
2024-03-05T00:28:32.784Z,999.90
2024-03-05T00:30:59.721Z,999.90
2024-03-05T00:33:26.810Z,999.90
2024-03-05T00:35:54.246Z,999.90
2024-03-05T00:38:28.453Z,999.90
2024-03-05T00:41:00.071Z,919.43
2024-03-05T00:43:27.323Z,747.37
2024-03-05T00:45:54.573Z,563.50
2024-03-05T00:48:21.424Z,603.15
2024-03-05T00:50:48.311Z,584.85
2024-03-05T00:53:15.180Z,618.63
2024-03-05T00:55:42.208Z,651.83
2024-03-05T00:58:09.130Z,657.75
2024-03-05T01:00:36.432Z,620.55
2024-03-05T01:03:03.701Z,615.65
2024-03-05T01:05:30.595Z,959.77
2024-03-05T01:07:57.584Z,999.90
2024-03-05T01:10:24.641Z,767.45
2024-03-05T01:12:51.987Z,576.85
2024-03-05T01:15:18.781Z,999.90
2024-03-05T01:17:45.722Z,999.90
2024-03-05T01:20:16.987Z,999.90
2024-03-05T01:22:44.304Z,999.90
2024-03-05T01:25:11.964Z,999.90
2024-03-05T01:27:42.081Z,999.90
2024-03-05T01:30:12.175Z,999.90
2024-03-05T01:32:39.955Z,999.90
2024-03-05T01:35:12.586Z,999.90
2024-03-05T01:37:42.760Z,999.90
2024-03-05T01:40:12.950Z,999.90
2024-03-05T01:42:39.837Z,999.90
2024-03-05T01:45:08.449Z,999.90
2024-03-05T01:47:36.122Z,999.90
2024-03-05T01:50:05.009Z,999.90
2024-03-05T01:52:32.498Z,999.90
2024-03-05T01:55:07.226Z,999.90
2024-03-05T01:57:35.002Z,999.90
2024-03-05T02:00:03.587Z,999.90
2024-03-05T02:02:31.563Z,999.90
2024-03-05T02:04:59.564Z,999.90
2024-03-05T02:07:26.514Z,999.90
2024-03-05T02:09:55.153Z,999.90
2024-03-05T02:12:21.946Z,999.90
2024-03-05T02:14:49.595Z,999.90
2024-03-05T02:17:17.773Z,999.90
2024-03-05T02:19:49.121Z,999.90
2024-03-05T02:22:16.720Z,999.90
2024-03-05T02:24:44.021Z,999.90
2024-03-05T02:27:17.282Z,999.90
2024-03-05T02:29:47.349Z,999.90
2024-03-05T02:32:14.537Z,999.90
2024-03-05T02:34:41.399Z,999.90
2024-03-05T02:37:11.632Z,999.90
2024-03-05T02:39:38.491Z,999.90
2024-03-05T02:42:06.088Z,999.90
2024-03-05T02:44:33.169Z,999.90
2024-03-05T02:47:00.099Z,999.90
2024-03-05T02:49:27.047Z,999.90
2024-03-05T02:51:53.938Z,999.90
2024-03-05T02:54:20.673Z,999.90
2024-03-05T02:56:47.512Z,999.90
2024-03-05T02:59:14.353Z,999.90
2024-03-05T03:01:47.313Z,999.90
2024-03-05T03:04:16.276Z,999.90
2024-03-05T03:06:44.161Z,999.90
2024-03-05T03:09:11.214Z,999.90
2024-03-05T03:11:42.199Z,999.90
2024-03-05T03:14:10.286Z,999.90
2024-03-05T03:16:37.219Z,999.90
2024-03-05T03:19:05.646Z,999.90
2024-03-05T03:21:32.654Z,999.90
2024-03-05T03:23:59.481Z,999.90
2024-03-05T03:26:26.336Z,999.90
2024-03-05T03:28:55.591Z,999.90
2024-03-05T03:31:26.796Z,999.90
2024-03-05T03:33:53.737Z,999.90
2024-03-05T03:36:25.010Z,999.90
2024-03-05T03:38:52.723Z,999.90
2024-03-05T03:41:20.672Z,999.90
2024-03-05T03:43:48.374Z,999.90
2024-03-05T03:46:15.500Z,999.90
2024-03-05T03:48:42.562Z,999.90
2024-03-05T03:51:10.375Z,999.90
2024-03-05T03:53:43.626Z,999.90
2024-03-05T03:56:12.295Z,999.90
2024-03-05T03:58:42.445Z,999.90
2024-03-05T04:01:09.425Z,999.90
2024-03-05T04:03:36.375Z,999.90
2024-03-05T04:06:03.350Z,999.90
2024-03-05T04:08:30.212Z,999.90
2024-03-05T04:10:57.205Z,999.90
2024-03-05T04:13:24.981Z,999.90
2024-03-05T04:15:53.226Z,999.90
2024-03-05T04:18:22.148Z,999.90
2024-03-05T04:20:48.965Z,999.90
2024-03-05T04:23:15.730Z,999.90
2024-03-05T04:25:42.872Z,999.90
2024-03-05T04:28:13.973Z,999.90
2024-03-05T04:30:42.844Z,999.90
2024-03-05T04:33:10.537Z,999.90
2024-03-05T04:35:38.106Z,999.90
2024-03-05T04:38:08.567Z,999.90
2024-03-05T04:40:38.857Z,999.90
2024-03-05T04:43:06.703Z,999.90
2024-03-05T04:45:35.072Z,999.90
2024-03-05T04:48:02.011Z,999.90
2024-03-05T04:50:28.948Z,999.90
2024-03-05T04:52:55.926Z,999.90
2024-03-05T04:55:23.647Z,999.90
2024-03-05T04:57:50.671Z,999.90
2024-03-05T05:00:21.305Z,999.90
2024-03-05T05:02:50.146Z,999.90
2024-03-05T05:05:17.227Z,999.90
2024-03-05T05:07:45.406Z,999.90
2024-03-05T05:10:12.377Z,999.90
2024-03-05T05:12:40.700Z,999.90
2024-03-05T05:15:08.579Z,999.90
2024-03-05T05:17:35.809Z,999.90
2024-03-05T05:20:09.785Z,999.90
2024-03-05T05:22:42.785Z,999.90
2024-03-05T05:25:10.034Z,999.90
2024-03-05T05:27:36.900Z,999.90
2024-03-05T05:30:14.251Z,999.90
2024-03-05T05:32:41.895Z,999.90
2024-03-05T05:35:09.724Z,999.90
2024-03-05T05:37:38.075Z,999.90
2024-03-05T05:40:06.856Z,999.90
2024-03-05T05:42:33.707Z,999.90
2024-03-05T05:45:00.996Z,999.90
2024-03-05T05:47:28.577Z,999.90
2024-03-05T05:49:55.581Z,999.90
2024-03-05T05:52:23.755Z,999.90
2024-03-05T05:54:51.027Z,999.90
2024-03-05T05:57:18.860Z,999.90
2024-03-05T05:59:46.009Z,999.90
2024-03-05T06:02:13.079Z,999.90
2024-03-05T06:04:42.603Z,999.90
2024-03-05T06:07:11.859Z,999.90
2024-03-05T06:09:42.866Z,999.90
2024-03-05T06:12:09.766Z,999.90
2024-03-05T06:14:37.296Z,999.90
2024-03-05T06:17:04.407Z,999.90
2024-03-05T06:19:33.422Z,999.90
2024-03-05T06:22:00.296Z,999.90
2024-03-05T06:24:27.431Z,999.90
2024-03-05T06:26:54.293Z,999.90
2024-03-05T06:29:22.000Z,999.90
2024-03-05T06:31:48.964Z,999.90
2024-03-05T06:34:16.465Z,999.90
2024-03-05T06:36:47.281Z,999.90
2024-03-05T06:39:30.145Z,999.90
2024-03-05T06:41:59.607Z,999.90
2024-03-05T06:44:36.854Z,999.90
2024-03-05T06:47:05.997Z,999.90
2024-03-05T06:49:41.206Z,990.63
2024-03-05T06:52:27.760Z,999.90
2024-03-05T06:55:13.513Z,999.90
2024-03-05T06:57:40.324Z,999.90
2024-03-05T07:00:16.718Z,999.90
2024-03-05T07:02:44.517Z,999.90
2024-03-05T07:05:11.908Z,999.90
2024-03-05T07:07:39.032Z,999.90
2024-03-05T07:10:14.829Z,999.90
2024-03-05T07:12:46.202Z,999.90
2024-03-05T07:15:15.680Z,999.90
2024-03-05T07:17:47.717Z,999.90
2024-03-05T07:20:23.590Z,999.90
2024-03-05T07:22:52.328Z,999.90
2024-03-05T07:25:19.756Z,999.90
2024-03-05T07:27:48.160Z,999.90
2024-03-05T07:30:21.085Z,999.90
2024-03-05T07:32:49.613Z,999.90
2024-03-05T07:35:18.835Z,999.90
2024-03-05T07:37:47.659Z,999.90
2024-03-05T07:40:21.566Z,999.90
2024-03-05T07:42:54.747Z,999.90
2024-03-05T07:45:23.062Z,999.90
2024-03-05T07:47:51.232Z,999.90
2024-03-05T07:50:18.580Z,999.90
2024-03-05T07:52:47.600Z,999.90
2024-03-05T07:55:23.777Z,999.90
2024-03-05T07:57:54.524Z,999.90
2024-03-05T08:00:23.162Z,999.90
2024-03-05T08:02:51.574Z,999.90
2024-03-05T08:05:22.379Z,999.90
2024-03-05T08:07:51.020Z,999.90
2024-03-05T08:10:18.576Z,999.90
2024-03-05T08:12:48.756Z,999.90
2024-03-05T08:15:16.777Z,999.90
2024-03-05T08:17:50.326Z,999.90
2024-03-05T08:20:19.204Z,999.90
2024-03-05T08:22:47.900Z,999.90
2024-03-05T08:25:17.171Z,999.90
2024-03-05T08:27:48.633Z,999.90
2024-03-05T08:30:20.951Z,999.90
2024-03-05T08:32:48.282Z,999.90
2024-03-05T08:35:15.137Z,999.90
2024-03-05T08:37:47.416Z,999.90
2024-03-05T08:40:16.827Z,999.90
2024-03-05T08:42:48.275Z,999.90
2024-03-05T08:45:17.067Z,999.90
2024-03-05T08:47:46.128Z,999.90
2024-03-05T08:50:13.799Z,999.90
2024-03-05T08:52:41.794Z,999.90
2024-03-05T08:55:09.716Z,999.90
2024-03-05T08:57:38.340Z,999.90
2024-03-05T09:00:16.603Z,999.90
2024-03-05T09:02:54.069Z,999.90
2024-03-05T09:05:22.505Z,999.90
2024-03-05T09:07:50.935Z,999.90
2024-03-05T09:10:18.952Z,999.90
2024-03-05T09:12:46.285Z,999.90
2024-03-05T09:15:17.218Z,999.90
2024-03-05T09:17:44.988Z,999.90
2024-03-05T09:20:15.642Z,999.90
2024-03-05T09:22:45.758Z,999.90
2024-03-05T09:25:14.449Z,999.90
2024-03-05T09:27:43.258Z,999.90
2024-03-05T09:30:11.362Z,999.90
2024-03-05T09:32:38.802Z,999.90
2024-03-05T09:35:10.979Z,999.90
2024-03-05T09:37:38.786Z,999.90
2024-03-05T09:40:18.440Z,999.90
2024-03-05T09:42:46.658Z,999.90
2024-03-05T09:45:18.859Z,999.90
2024-03-05T09:47:49.235Z,999.90
2024-03-05T09:50:18.445Z,999.90
2024-03-05T09:52:47.878Z,999.90
2024-03-05T09:55:16.247Z,999.90
2024-03-05T09:57:48.289Z,999.90
2024-03-05T10:00:19.979Z,999.90
2024-03-05T10:02:52.547Z,999.90
2024-03-05T10:05:20.778Z,999.90
2024-03-05T10:07:49.025Z,999.90
2024-03-05T10:10:20.213Z,999.90
2024-03-05T10:12:47.581Z,999.90
2024-03-05T10:15:24.966Z,999.90
2024-03-05T10:17:55.089Z,999.90
2024-03-05T10:20:33.542Z,999.90
2024-03-05T10:23:04.119Z,999.90
2024-03-05T10:25:33.902Z,999.90
2024-03-05T10:28:01.198Z,999.90
2024-03-05T10:30:37.639Z,999.90
2024-03-05T10:33:09.090Z,999.90
2024-03-05T10:35:38.918Z,999.90
2024-03-05T10:38:09.576Z,999.90
2024-03-05T10:40:37.651Z,999.90
2024-03-05T10:43:09.283Z,999.90
2024-03-05T10:45:41.284Z,999.90
2024-03-05T10:48:10.783Z,999.90
2024-03-05T10:50:40.845Z,999.90
2024-03-05T10:53:08.676Z,999.90
2024-03-05T10:55:37.782Z,999.90
2024-03-05T10:58:21.207Z,999.90
2024-03-05T11:00:51.182Z,999.90
2024-03-05T11:03:29.310Z,999.90
2024-03-05T11:05:57.482Z,999.90
2024-03-05T11:08:27.942Z,999.90
2024-03-05T11:11:00.353Z,999.90
2024-03-05T11:13:29.382Z,999.90
2024-03-05T11:15:56.888Z,999.90
2024-03-05T11:18:37.755Z,999.90
2024-03-05T11:21:09.994Z,999.90
2024-03-05T11:23:39.399Z,999.90
2024-03-05T11:26:08.891Z,999.90
2024-03-05T11:28:36.980Z,999.90
2024-03-05T11:31:10.908Z,999.90
2024-03-05T11:33:41.529Z,999.90
2024-03-05T11:36:23.431Z,999.90
2024-03-05T11:39:04.857Z,999.90
2024-03-05T11:41:33.502Z,999.90
2024-03-05T11:44:00.995Z,999.90
2024-03-05T11:46:49.678Z,999.90
2024-03-05T11:49:18.083Z,999.90
2024-03-05T11:51:46.478Z,999.90
2024-03-05T11:54:20.725Z,999.90
2024-03-05T11:57:00.990Z,999.90
2024-03-05T11:59:40.836Z,999.90
2024-03-05T12:02:15.983Z,999.90
2024-03-05T12:04:50.156Z,999.90
2024-03-05T12:07:18.526Z,999.90
2024-03-05T12:09:46.058Z,999.90
2024-03-05T12:12:15.340Z,999.90
2024-03-05T12:14:51.313Z,999.90
2024-03-05T12:17:19.994Z,999.90
2024-03-05T12:20:00.742Z,999.90
2024-03-05T12:22:28.582Z,999.90
2024-03-05T12:24:55.849Z,999.90
2024-03-05T12:27:23.313Z,999.90
2024-03-05T12:29:52.322Z,999.90
2024-03-05T12:32:20.005Z,999.90
2024-03-05T12:34:48.459Z,999.90
2024-03-05T12:37:17.312Z,999.90
2024-03-05T12:39:44.866Z,999.90
2024-03-05T12:42:15.131Z,999.90
2024-03-05T12:44:42.936Z,999.90
2024-03-05T12:47:16.407Z,999.90
2024-03-05T12:49:48.572Z,999.90
2024-03-05T12:52:24.059Z,999.90
2024-03-05T12:55:08.547Z,999.90
2024-03-05T12:57:36.174Z,999.90
2024-03-05T13:00:13.949Z,999.90
2024-03-05T13:02:42.699Z,999.90
2024-03-05T13:05:10.484Z,999.90
2024-03-05T13:07:39.280Z,999.90
2024-03-05T13:10:12.183Z,999.90
2024-03-05T13:12:39.978Z,999.90
2024-03-05T13:15:07.421Z,999.90
2024-03-05T13:17:34.438Z,999.90
2024-03-05T13:20:02.345Z,999.90
2024-03-05T13:22:29.727Z,999.90
2024-03-05T13:24:56.703Z,999.90
2024-03-05T13:27:24.923Z,999.90
2024-03-05T13:30:01.076Z,999.90
2024-03-05T13:32:32.675Z,999.90
2024-03-05T13:34:59.758Z,999.90
2024-03-05T13:37:27.116Z,999.90
2024-03-05T13:39:54.417Z,999.90
2024-03-05T13:42:22.284Z,999.90
2024-03-05T13:44:49.990Z,999.90
2024-03-05T13:47:18.411Z,999.90
2024-03-05T13:49:45.742Z,999.90
2024-03-05T13:52:13.032Z,999.90
2024-03-05T13:54:40.605Z,999.90
2024-03-05T13:57:08.830Z,999.90
2024-03-05T13:59:35.791Z,999.90
2024-03-05T14:02:03.667Z,999.90
2024-03-05T14:04:31.095Z,999.90
2024-03-05T14:06:59.516Z,999.90
2024-03-05T14:09:27.453Z,999.90
2024-03-05T14:11:56.353Z,999.90
2024-03-05T14:14:23.665Z,999.90
2024-03-05T14:16:50.878Z,999.90
2024-03-05T14:19:18.306Z,999.90
2024-03-05T14:21:45.573Z,999.90
2024-03-05T14:24:13.962Z,999.90
2024-03-05T14:26:42.720Z,999.90
2024-03-05T14:29:10.292Z,999.90
2024-03-05T14:31:38.255Z,999.90
2024-03-05T14:34:05.562Z,999.90
2024-03-05T14:36:32.954Z,999.90
2024-03-05T14:39:02.809Z,999.90
2024-03-05T14:41:30.681Z,999.90
2024-03-05T14:43:57.665Z,999.90
2024-03-05T14:46:25.926Z,999.90
2024-03-05T14:48:53.323Z,999.90
2024-03-05T14:51:20.734Z,999.90
2024-03-05T14:53:48.322Z,999.90
2024-03-05T14:56:15.624Z,999.90
2024-03-05T14:58:43.024Z,999.90
2024-03-05T15:01:09.963Z,999.90
2024-03-05T15:03:37.354Z,999.90
2024-03-05T15:06:05.658Z,999.90
2024-03-05T15:08:32.999Z,999.90
2024-03-05T15:11:02.039Z,999.90
2024-03-05T15:13:29.491Z,999.90
2024-03-05T15:15:56.568Z,999.90
2024-03-05T15:18:23.918Z,999.90
2024-03-05T15:20:53.460Z,999.90
2024-03-05T15:23:20.394Z,999.90
2024-03-05T15:25:47.398Z,999.90
2024-03-05T15:28:14.714Z,999.90
2024-03-05T15:30:42.028Z,999.90
2024-03-05T15:33:10.734Z,999.90
2024-03-05T15:35:38.492Z,999.90
2024-03-05T15:38:08.444Z,999.90
2024-03-05T15:40:35.861Z,999.90
2024-03-05T15:43:07.397Z,999.90
2024-03-05T15:45:35.607Z,999.90
2024-03-05T15:48:02.526Z,999.90
2024-03-05T15:50:32.768Z,999.90
2024-03-05T15:53:04.096Z,999.90
2024-03-05T15:55:33.268Z,999.90
2024-03-05T15:58:04.626Z,999.90
2024-03-05T16:00:36.996Z,999.90
2024-03-05T16:03:08.900Z,999.90
2024-03-05T16:05:55.084Z,999.90
2024-03-05T16:08:27.981Z,999.90
2024-03-05T16:10:55.841Z,999.90
2024-03-05T16:13:23.432Z,999.90
2024-03-05T16:15:51.398Z,999.90
2024-03-05T16:18:18.726Z,999.90
2024-03-05T16:20:47.398Z,999.90
2024-03-05T16:23:14.997Z,999.90
2024-03-05T16:25:42.443Z,999.90
2024-03-05T16:28:11.203Z,999.90
2024-03-05T16:30:39.301Z,999.90
2024-03-05T16:33:07.069Z,999.90
2024-03-05T16:35:36.243Z,999.90
2024-03-05T16:38:07.558Z,999.90
2024-03-05T16:40:39.347Z,999.90
2024-03-05T16:43:10.483Z,999.90
2024-03-05T16:45:37.838Z,999.90
2024-03-05T16:48:08.384Z,999.90
2024-03-05T16:50:35.681Z,999.90
2024-03-05T16:53:02.952Z,999.90
2024-03-05T16:55:30.767Z,999.90
2024-03-05T16:58:00.087Z,999.90
2024-03-05T17:00:31.906Z,999.90
2024-03-05T17:03:08.540Z,999.90
2024-03-05T17:05:38.126Z,999.90
2024-03-05T17:08:28.521Z,999.90
2024-03-05T17:10:56.264Z,999.90
2024-03-05T17:13:35.982Z,999.90
2024-03-05T17:16:05.304Z,999.90
2024-03-05T17:18:33.241Z,999.90
2024-03-05T17:21:00.886Z,999.90
2024-03-05T17:26:39.672Z,999.90
2024-03-05T17:29:11.039Z,999.90
2024-03-05T17:31:38.407Z,999.90
2024-03-05T17:34:08.620Z,999.90
2024-03-05T17:36:35.400Z,999.90
2024-03-05T17:39:08.980Z,999.90
2024-03-05T17:41:37.143Z,999.90
2024-03-05T17:44:05.282Z,999.90
2024-03-05T17:46:33.524Z,999.90
2024-03-05T17:49:01.637Z,999.90
2024-03-05T17:51:28.834Z,999.90
2024-03-05T17:53:55.854Z,999.90
2024-03-05T17:56:23.256Z,999.90
2024-03-05T17:58:50.700Z,999.90
2024-03-05T18:01:19.797Z,999.90
2024-03-05T18:03:47.127Z,999.90
2024-03-05T18:06:17.012Z,999.90
2024-03-05T18:08:47.256Z,999.90
2024-03-05T18:11:14.644Z,999.90
2024-03-05T18:13:44.601Z,999.90
2024-03-05T18:16:12.385Z,999.90
2024-03-05T18:18:39.769Z,999.90
2024-03-05T18:21:09.063Z,999.90
2024-03-05T18:23:40.469Z,999.90
2024-03-05T18:26:07.457Z,999.90
2024-03-05T18:28:35.021Z,999.90
2024-03-05T18:31:02.359Z,999.90
2024-03-05T18:33:29.543Z,999.90
2024-03-05T18:35:59.951Z,999.90
2024-03-05T18:38:29.739Z,999.90
2024-03-05T18:40:59.964Z,999.90
2024-03-05T18:43:29.143Z,999.90
2024-03-05T18:45:57.103Z,999.90
2024-03-05T18:48:24.392Z,999.90
2024-03-05T18:50:52.640Z,999.90
2024-03-05T18:53:20.617Z,999.90
2024-03-05T18:55:49.068Z,999.90
2024-03-05T18:58:16.397Z,999.90
2024-03-05T19:00:43.453Z,999.90
2024-03-05T19:03:10.545Z,999.90
2024-03-05T19:05:38.291Z,999.90
2024-03-05T19:08:08.513Z,999.90
2024-03-05T19:10:37.986Z,999.90
2024-03-05T19:13:06.864Z,999.90
2024-03-05T19:15:34.725Z,999.90
2024-03-05T19:18:02.136Z,999.90
2024-03-05T19:20:29.231Z,999.90
2024-03-05T19:22:56.709Z,999.90
2024-03-05T19:25:28.969Z,999.90
2024-03-05T19:27:56.618Z,999.90
2024-03-05T19:30:24.111Z,999.90
2024-03-05T19:32:51.678Z,999.90
2024-03-05T19:35:19.094Z,999.90
2024-03-05T19:37:48.594Z,999.90
2024-03-05T19:40:17.741Z,999.90
2024-03-05T19:42:46.141Z,999.90
2024-03-05T19:45:14.403Z,999.90
2024-03-05T19:47:41.597Z,999.90
2024-03-05T19:50:09.174Z,999.90
2024-03-05T19:52:36.870Z,999.90
2024-03-05T19:55:04.038Z,999.90
2024-03-05T19:57:31.489Z,999.90
2024-03-05T20:00:00.476Z,999.90
2024-03-05T20:02:39.994Z,999.90
2024-03-05T20:05:07.708Z,999.90
2024-03-05T20:07:34.986Z,999.90
2024-03-05T20:10:02.662Z,999.90
2024-03-05T20:12:30.258Z,999.90
2024-03-05T20:14:57.170Z,999.90
2024-03-05T20:17:26.249Z,999.90
2024-03-05T20:19:54.969Z,999.90
2024-03-05T20:22:25.695Z,999.90
2024-03-05T20:24:59.538Z,999.90
2024-03-05T20:27:28.041Z,999.90
2024-03-05T20:29:56.633Z,999.90
2024-03-05T20:32:25.871Z,999.90
2024-03-05T20:34:53.417Z,999.90
2024-03-05T20:37:21.659Z,999.90
2024-03-05T20:39:50.779Z,999.90
2024-03-05T20:42:17.587Z,999.90
2024-03-05T20:44:44.554Z,999.90
2024-03-05T20:47:12.637Z,999.90
2024-03-05T20:49:40.052Z,999.90
2024-03-05T20:52:07.013Z,999.90
2024-03-05T20:54:34.374Z,999.90
2024-03-05T20:57:01.326Z,999.90
2024-03-05T20:59:33.222Z,999.90
2024-03-05T21:02:09.923Z,999.90
2024-03-05T21:04:39.056Z,999.90
2024-03-05T21:07:06.648Z,999.90
2024-03-05T21:09:37.201Z,999.90
2024-03-05T21:12:05.262Z,999.90
2024-03-05T21:14:32.480Z,999.90
2024-03-05T21:16:59.414Z,999.90
2024-03-05T21:19:29.522Z,999.90
2024-03-05T21:21:57.711Z,999.90
2024-03-05T21:24:27.321Z,999.90
2024-03-05T21:27:09.842Z,999.90
2024-03-05T21:29:41.780Z,999.90
2024-03-05T21:32:09.069Z,999.90
2024-03-05T21:34:36.136Z,999.90
2024-03-05T21:37:02.936Z,999.90
2024-03-05T21:39:29.820Z,999.90
2024-03-05T21:41:56.899Z,999.90
2024-03-05T21:44:34.486Z,999.90
2024-03-05T21:47:08.277Z,999.90
2024-03-05T21:49:35.381Z,999.90
2024-03-05T21:52:02.317Z,999.90
2024-03-05T21:54:29.830Z,999.90
2024-03-05T21:56:56.731Z,999.90
2024-03-05T21:59:23.715Z,999.90
2024-03-05T22:01:51.595Z,999.90
2024-03-05T22:04:19.145Z,999.90
2024-03-05T22:06:46.090Z,999.90
2024-03-05T22:09:13.576Z,999.90
2024-03-05T22:11:41.664Z,999.90
2024-03-05T22:14:10.922Z,999.90
2024-03-05T22:16:42.370Z,999.90
2024-03-05T22:19:09.512Z,999.90
2024-03-05T22:21:40.778Z,999.90
2024-03-05T22:24:07.820Z,999.90
2024-03-05T22:26:35.464Z,999.90
2024-03-05T22:29:02.308Z,999.90
2024-03-05T22:31:30.898Z,999.90
2024-03-05T22:33:58.256Z,999.90
2024-03-05T22:36:25.753Z,999.90
2024-03-05T22:38:53.059Z,999.90
2024-03-05T22:41:20.453Z,999.90
2024-03-05T22:43:47.955Z,999.90
2024-03-05T22:46:16.514Z,999.90
2024-03-05T22:48:43.403Z,999.90
2024-03-05T22:51:15.294Z,999.90
2024-03-05T22:53:42.781Z,999.90
2024-03-05T22:56:10.622Z,999.90
2024-03-05T22:58:38.440Z,999.90
2024-03-05T23:01:06.121Z,999.90
2024-03-05T23:03:34.099Z,999.90
2024-03-05T23:06:08.087Z,999.90
2024-03-05T23:08:39.753Z,999.90
2024-03-05T23:11:06.935Z,999.90
2024-03-05T23:13:34.671Z,999.90
2024-03-05T23:16:01.988Z,999.90
2024-03-05T23:18:29.254Z,999.90
2024-03-05T23:20:56.505Z,999.90
2024-03-05T23:23:23.312Z,999.90
2024-03-05T23:25:50.508Z,999.90
2024-03-05T23:28:17.531Z,999.90
2024-03-05T23:30:44.351Z,999.90
2024-03-05T23:33:11.731Z,999.90
2024-03-05T23:35:38.750Z,999.90
2024-03-05T23:38:06.010Z,999.90
2024-03-05T23:40:33.022Z,999.90
2024-03-05T23:43:00.796Z,999.90
2024-03-05T23:45:27.772Z,999.90
2024-03-05T23:47:56.611Z,999.90
2024-03-05T23:50:23.516Z,999.90
2024-03-05T23:52:50.497Z,999.90
2024-03-05T23:55:19.561Z,999.90
2024-03-05T23:57:46.642Z,999.90
